createdAt,value
2022-10-07T00:00:29.932Z,82.27
2022-10-07T00:02:56.453Z,82.82
2022-10-07T00:05:22.944Z,82.62
2022-10-07T00:07:49.496Z,82.80
2022-10-07T00:10:16.061Z,82.78
2022-10-07T00:12:42.589Z,82.62
2022-10-07T00:15:09.812Z,82.58
2022-10-07T00:17:36.761Z,82.68
2022-10-07T00:20:03.517Z,82.71
2022-10-07T00:22:31.084Z,82.88
2022-10-07T00:24:57.640Z,82.83
2022-10-07T00:27:24.225Z,82.44
2022-10-07T00:29:52.629Z,82.47
2022-10-07T00:32:19.154Z,82.23
2022-10-07T00:34:46.347Z,82.32
2022-10-07T00:37:13.738Z,82.13
2022-10-07T00:39:42.334Z,82.22
2022-10-07T00:42:13.624Z,82.06
2022-10-07T00:44:48.651Z,81.85
2022-10-07T00:47:27.992Z,81.84
2022-10-07T00:50:00.416Z,82.12
2022-10-07T00:52:30.350Z,82.54
2022-10-07T00:54:59.046Z,82.02
2022-10-07T00:57:29.329Z,82.20
2022-10-07T00:59:57.107Z,82.64
2022-10-07T01:02:25.919Z,82.03
2022-10-07T01:04:54.758Z,82.33
2022-10-07T01:07:21.633Z,82.50
2022-10-07T01:09:51.276Z,82.46
2022-10-07T01:12:32.778Z,82.27
2022-10-07T01:15:10.572Z,82.35
2022-10-07T01:18:01.698Z,82.85
2022-10-07T01:20:28.021Z,82.75
2022-10-07T01:23:01.148Z,82.40
2022-10-07T01:25:46.301Z,82.97
2022-10-07T01:28:28.944Z,82.62
2022-10-07T01:31:00.272Z,82.99
2022-10-07T01:33:30.278Z,82.96
2022-10-07T01:36:02.601Z,82.94
2022-10-07T01:38:31.456Z,83.25
2022-10-07T01:41:08.083Z,83.49
2022-10-07T01:43:36.946Z,83.18
2022-10-07T01:46:07.516Z,82.87
2022-10-07T01:48:35.421Z,83.06
2022-10-07T01:51:02.268Z,83.13
2022-10-07T01:53:39.910Z,83.58
2022-10-07T01:56:27.198Z,83.58
2022-10-07T01:59:34.461Z,83.73
2022-10-07T02:02:13.648Z,83.80
2022-10-07T02:04:59.109Z,83.78
2022-10-07T02:07:34.590Z,83.75
2022-10-07T02:10:21.243Z,83.51
2022-10-07T02:12:57.312Z,83.72
2022-10-07T02:15:38.967Z,84.05
2022-10-07T02:18:09.860Z,83.61
2022-10-07T02:20:39.834Z,83.47
2022-10-07T02:23:10.178Z,83.76
2022-10-07T02:25:40.530Z,83.58
2022-10-07T02:28:09.260Z,83.24
2022-10-07T02:30:37.682Z,83.05
2022-10-07T02:33:07.457Z,83.27
2022-10-07T02:35:57.980Z,83.14
2022-10-07T02:38:26.115Z,83.52
2022-10-07T02:41:05.992Z,83.37
2022-10-07T02:43:56.224Z,83.61
2022-10-07T02:46:29.659Z,83.22
2022-10-07T02:49:02.874Z,83.58
2022-10-07T02:51:36.789Z,83.35
2022-10-07T02:54:05.073Z,83.80
2022-10-07T02:56:35.325Z,83.30
2022-10-07T02:59:03.398Z,83.47
2022-10-07T03:01:33.898Z,83.29
2022-10-07T03:04:00.960Z,82.74
2022-10-07T03:06:29.561Z,82.39
2022-10-07T03:09:00.184Z,82.54
2022-10-07T03:11:26.678Z,82.61
2022-10-07T03:13:53.734Z,82.54
2022-10-07T03:16:20.419Z,82.43
2022-10-07T03:18:46.888Z,82.52
2022-10-07T03:21:20.061Z,82.48
2022-10-07T03:23:53.177Z,82.31
2022-10-07T03:26:21.951Z,82.44
2022-10-07T03:28:49.146Z,82.63
2022-10-07T03:31:15.891Z,82.45
2022-10-07T03:33:46.954Z,82.59
2022-10-07T03:36:13.645Z,82.50
2022-10-07T03:38:42.758Z,82.68
2022-10-07T03:41:10.818Z,82.89
2022-10-07T03:43:38.239Z,82.83
2022-10-07T03:46:06.425Z,83.30
2022-10-07T03:48:35.840Z,83.53
2022-10-07T03:51:02.555Z,83.24
2022-10-07T03:53:30.951Z,83.72
2022-10-07T03:55:59.985Z,83.34
2022-10-07T03:58:27.328Z,83.38
2022-10-07T04:01:04.525Z,83.69
2022-10-07T04:03:31.113Z,84.04
2022-10-07T04:05:59.587Z,83.98
2022-10-07T04:08:29.014Z,83.20
2022-10-07T04:10:57.254Z,83.58
2022-10-07T04:13:24.193Z,83.57
2022-10-07T04:15:52.667Z,83.80
2022-10-07T04:18:21.069Z,83.49
2022-10-07T04:20:48.218Z,83.77
2022-10-07T04:23:16.505Z,83.98
2022-10-07T04:25:44.991Z,83.77
2022-10-07T04:28:18.115Z,84.05
2022-10-07T04:30:51.037Z,84.28
2022-10-07T04:33:21.884Z,84.25
2022-10-07T04:35:50.173Z,84.26
2022-10-07T04:38:18.445Z,84.21
2022-10-07T04:40:49.910Z,84.45
2022-10-07T04:43:20.882Z,84.56
2022-10-07T04:46:05.905Z,84.48
2022-10-07T04:48:35.773Z,84.26
2022-10-07T04:51:08.253Z,84.26
2022-10-07T04:53:38.302Z,84.35
2022-10-07T04:56:05.306Z,84.24
2022-10-07T04:58:32.601Z,84.25
2022-10-07T05:01:01.731Z,84.02
2022-10-07T05:03:30.090Z,84.22
2022-10-07T05:06:05.900Z,84.48
2022-10-07T05:08:33.969Z,84.14
2022-10-07T05:11:02.223Z,84.14
2022-10-07T05:13:33.620Z,83.60
2022-10-07T05:16:02.757Z,83.83
2022-10-07T05:18:31.035Z,83.22
2022-10-07T05:21:07.230Z,83.28
2022-10-07T05:23:38.961Z,83.09
2022-10-07T05:26:11.037Z,83.60
2022-10-07T05:28:41.754Z,83.71
2022-10-07T05:31:14.747Z,83.68
2022-10-07T05:33:46.005Z,83.75
2022-10-07T05:36:12.496Z,83.75
2022-10-07T05:38:39.866Z,83.42
2022-10-07T05:41:09.889Z,83.30
2022-10-07T05:43:43.023Z,83.50
2022-10-07T05:46:15.714Z,83.51
2022-10-07T05:48:48.455Z,83.86
2022-10-07T05:51:15.880Z,83.59
2022-10-07T05:53:43.067Z,84.04
2022-10-07T05:56:12.599Z,83.88
2022-10-07T05:58:39.720Z,84.02
2022-10-07T06:01:14.625Z,83.80
2022-10-07T06:03:43.676Z,83.59
2022-10-07T06:06:10.604Z,84.23
2022-10-07T06:08:37.104Z,84.15
2022-10-07T06:11:23.939Z,84.28
2022-10-07T06:13:52.130Z,84.42
2022-10-07T06:16:19.829Z,83.79
2022-10-07T06:18:50.361Z,83.94
2022-10-07T06:21:23.650Z,84.03
2022-10-07T06:23:52.009Z,83.60
2022-10-07T06:26:22.530Z,83.86
2022-10-07T06:28:49.721Z,83.76
2022-10-07T06:31:24.540Z,83.25
2022-10-07T06:33:54.886Z,83.13
2022-10-07T06:36:23.171Z,83.04
2022-10-07T06:38:54.166Z,83.15
2022-10-07T06:41:25.867Z,82.79
2022-10-07T06:44:04.777Z,83.10
2022-10-07T06:46:31.366Z,82.53
2022-10-07T06:48:58.212Z,82.53
2022-10-07T06:51:25.421Z,82.94
2022-10-07T06:53:54.798Z,82.70
2022-10-07T06:56:21.440Z,82.94
2022-10-07T06:58:49.705Z,82.72
2022-10-07T07:01:22.760Z,82.48
2022-10-07T07:03:49.389Z,82.19
2022-10-07T07:06:15.858Z,81.75
2022-10-07T07:08:42.336Z,81.67
2022-10-07T07:11:31.927Z,81.97
2022-10-07T07:14:04.713Z,81.60
2022-10-07T07:16:31.913Z,81.59
2022-10-07T07:19:04.032Z,81.45
2022-10-07T07:21:31.534Z,81.67
2022-10-07T07:23:58.810Z,81.70
2022-10-07T07:26:27.974Z,81.67
2022-10-07T07:28:59.201Z,81.46
2022-10-07T07:31:30.017Z,81.25
2022-10-07T07:34:00.621Z,81.17
2022-10-07T07:36:29.737Z,80.75
2022-10-07T07:38:58.920Z,81.18
2022-10-07T07:41:28.458Z,81.05
2022-10-07T07:43:58.423Z,80.67
2022-10-07T07:46:27.829Z,80.87
2022-10-07T07:48:55.462Z,80.56
2022-10-07T07:51:22.685Z,79.88
2022-10-07T07:53:50.244Z,79.59
2022-10-07T07:56:18.560Z,79.18
2022-10-07T07:58:45.535Z,78.77
2022-10-07T08:01:15.773Z,79.00
2022-10-07T08:03:46.375Z,78.82
2022-10-07T08:06:15.618Z,78.76
2022-10-07T08:08:43.141Z,78.70
2022-10-07T08:11:13.237Z,78.14
2022-10-07T08:13:41.761Z,77.79
2022-10-07T08:16:13.280Z,77.56
2022-10-07T08:18:42.959Z,77.56
2022-10-07T08:21:10.565Z,77.03
2022-10-07T08:23:38.353Z,76.78
2022-10-07T08:26:07.440Z,76.52
2022-10-07T08:28:35.649Z,76.77
2022-10-07T08:31:14.429Z,76.82
2022-10-07T08:33:44.895Z,76.64
2022-10-07T08:36:16.991Z,77.11
2022-10-07T08:38:51.114Z,76.79
2022-10-07T08:41:45.724Z,76.96
2022-10-07T08:44:17.999Z,76.27
2022-10-07T08:47:34.572Z,76.23
2022-10-07T08:50:18.088Z,76.21
2022-10-07T08:52:51.884Z,76.22
2022-10-07T08:55:43.758Z,75.72
2022-10-07T08:58:47.688Z,75.41
2022-10-07T09:01:59.758Z,74.12
2022-10-07T09:04:48.113Z,74.00
2022-10-07T09:07:18.892Z,73.76
2022-10-07T09:09:56.843Z,74.03
2022-10-07T09:12:30.378Z,74.06
2022-10-07T09:14:59.230Z,73.53
2022-10-07T09:17:38.155Z,72.91
2022-10-07T09:20:19.230Z,72.64
2022-10-07T09:22:54.833Z,72.15
2022-10-07T09:25:24.477Z,71.92
2022-10-07T09:27:52.237Z,72.26
2022-10-07T09:30:20.130Z,71.94
2022-10-07T09:32:49.148Z,72.05
2022-10-07T09:35:22.683Z,71.74
2022-10-07T09:38:01.596Z,71.94
2022-10-07T09:40:33.001Z,71.50
2022-10-07T09:43:00.397Z,71.06
2022-10-07T09:45:31.314Z,70.08
2022-10-07T09:48:07.510Z,69.76
2022-10-07T09:50:39.280Z,69.43
2022-10-07T09:53:23.920Z,68.84
2022-10-07T09:55:53.076Z,67.68
2022-10-07T09:58:21.170Z,67.05
2022-10-07T10:00:50.509Z,67.11
2022-10-07T10:03:17.664Z,66.83
2022-10-07T10:05:51.805Z,67.59
2022-10-07T10:08:18.158Z,65.98
2022-10-07T10:10:56.469Z,65.67
2022-10-07T10:13:32.176Z,66.62
2022-10-07T10:15:59.814Z,67.44
2022-10-07T10:18:36.991Z,67.00
2022-10-07T10:21:29.297Z,67.60
2022-10-07T10:24:01.362Z,67.57
2022-10-07T10:27:06.731Z,67.21
2022-10-07T10:29:57.196Z,66.38
2022-10-07T10:32:32.566Z,66.28
2022-10-07T10:35:16.130Z,66.54
2022-10-07T10:38:13.869Z,66.73
2022-10-07T10:40:47.981Z,66.21
2022-10-07T10:43:50.652Z,65.52
2022-10-07T10:46:39.308Z,64.92
2022-10-07T10:49:33.802Z,63.80
2022-10-07T10:52:36.971Z,63.21
2022-10-07T10:55:14.036Z,63.78
2022-10-07T10:57:43.097Z,63.00
2022-10-07T11:00:20.203Z,62.16
2022-10-07T11:03:13.734Z,62.93
2022-10-07T11:05:42.441Z,62.66
2022-10-07T11:08:19.864Z,62.69
2022-10-07T11:10:59.721Z,62.38
2022-10-07T11:13:44.034Z,62.17
2022-10-07T11:16:24.983Z,60.30
2022-10-07T11:19:16.378Z,58.42
2022-10-07T11:21:51.171Z,58.58
2022-10-07T11:24:26.578Z,59.45
2022-10-07T11:27:18.007Z,59.02
2022-10-07T11:29:53.678Z,59.38
2022-10-07T11:32:29.228Z,59.99
2022-10-07T11:35:14.354Z,59.06
2022-10-07T11:37:50.192Z,57.77
2022-10-07T11:40:16.800Z,57.90
2022-10-07T11:42:49.916Z,58.06
2022-10-07T11:45:22.645Z,56.30
2022-10-07T11:48:05.202Z,56.55
2022-10-07T11:50:37.654Z,57.06
2022-10-07T11:53:26.343Z,55.28
2022-10-07T11:56:23.756Z,54.38
2022-10-07T11:59:01.891Z,54.43
2022-10-07T12:01:31.948Z,54.13
2022-10-07T12:04:00.158Z,54.79
2022-10-07T12:06:26.667Z,55.48
2022-10-07T12:08:53.703Z,56.83
2022-10-07T12:11:20.477Z,58.12
2022-10-07T12:13:50.623Z,59.68
2022-10-07T12:16:23.094Z,60.07
2022-10-07T12:19:12.789Z,61.10
2022-10-07T12:22:02.135Z,61.94
2022-10-07T12:24:36.863Z,62.95
2022-10-07T12:27:24.408Z,63.08
2022-10-07T12:29:58.555Z,62.94
2022-10-07T12:32:42.530Z,63.80
2022-10-07T12:35:34.177Z,64.40
2022-10-07T12:38:14.227Z,63.78
2022-10-07T12:40:42.413Z,65.06
2022-10-07T12:43:24.949Z,65.27
2022-10-07T12:45:52.600Z,65.28
2022-10-07T12:48:22.421Z,65.89
2022-10-07T12:50:52.723Z,65.98
2022-10-07T12:53:24.469Z,66.49
2022-10-07T12:55:54.495Z,67.03
2022-10-07T12:59:00.555Z,67.88
2022-10-07T13:01:48.910Z,68.22
2022-10-07T13:04:27.771Z,67.81
2022-10-07T13:07:18.128Z,68.29
2022-10-07T13:10:09.299Z,68.00
2022-10-07T13:12:44.910Z,68.25
2022-10-07T13:15:26.992Z,69.03
2022-10-07T13:18:10.811Z,69.85
2022-10-07T13:20:41.504Z,70.55
2022-10-07T13:23:17.341Z,71.26
2022-10-07T13:25:47.586Z,71.00
2022-10-07T13:28:16.903Z,71.58
2022-10-07T13:30:45.544Z,71.44
2022-10-07T13:33:28.374Z,71.78
2022-10-07T13:36:13.930Z,72.56
2022-10-07T13:38:40.397Z,72.75
2022-10-07T13:41:15.288Z,73.12
2022-10-07T13:43:44.507Z,73.35
2022-10-07T13:46:12.570Z,73.56
2022-10-07T13:48:45.684Z,73.99
2022-10-07T13:51:27.256Z,74.63
2022-10-07T13:53:55.082Z,74.70
2022-10-07T13:56:33.542Z,75.25
2022-10-07T13:59:01.294Z,75.40
2022-10-07T14:01:30.337Z,75.95
2022-10-07T14:04:01.721Z,76.20
2022-10-07T14:07:09.355Z,76.29
2022-10-07T14:09:55.852Z,76.01
2022-10-07T14:12:29.392Z,76.03
2022-10-07T14:15:02.454Z,75.86
2022-10-07T14:17:52.968Z,75.72
2022-10-07T14:20:25.080Z,75.54
2022-10-07T14:22:54.799Z,75.52
2022-10-07T14:25:24.074Z,75.76
2022-10-07T14:27:53.592Z,76.04
2022-10-07T14:30:29.204Z,75.85
2022-10-07T14:33:28.756Z,76.16
2022-10-07T14:36:17.071Z,76.06
2022-10-07T14:38:46.472Z,76.11
2022-10-07T14:41:14.626Z,76.35
2022-10-07T14:43:45.028Z,76.88
2022-10-07T14:46:25.437Z,77.29
2022-10-07T14:48:53.695Z,77.39
2022-10-07T14:51:26.949Z,77.70
2022-10-07T14:54:01.651Z,78.08
2022-10-07T14:56:30.979Z,77.85
2022-10-07T14:58:57.776Z,78.08
2022-10-07T15:01:26.498Z,78.01
2022-10-07T15:03:53.015Z,78.22
2022-10-07T15:06:20.422Z,78.61
2022-10-07T15:08:48.399Z,78.57
2022-10-07T15:11:19.936Z,79.04
2022-10-07T15:13:47.771Z,79.35
2022-10-07T15:16:20.351Z,79.28
2022-10-07T15:18:52.106Z,79.79
2022-10-07T15:21:20.550Z,79.92
2022-10-07T15:23:53.694Z,80.16
2022-10-07T15:26:23.333Z,80.47
2022-10-07T15:28:54.868Z,80.22
2022-10-07T15:31:23.316Z,80.19
2022-10-07T15:33:50.661Z,80.45
2022-10-07T15:36:17.787Z,80.37
2022-10-07T15:38:44.315Z,80.46
2022-10-07T15:41:29.442Z,80.45
2022-10-07T15:44:00.446Z,80.60
2022-10-07T15:46:27.905Z,80.60
2022-10-07T15:48:59.202Z,80.87
2022-10-07T15:51:26.054Z,81.27
2022-10-07T15:53:55.484Z,81.57
2022-10-07T15:56:22.032Z,81.71
2022-10-07T15:58:48.435Z,81.94
2022-10-07T16:01:15.424Z,82.47
2022-10-07T16:03:44.808Z,82.21
2022-10-07T16:06:15.771Z,82.75
2022-10-07T16:08:42.259Z,82.94
2022-10-07T16:11:10.845Z,82.63
2022-10-07T16:13:38.622Z,83.14
2022-10-07T16:16:07.748Z,83.02
2022-10-07T16:18:37.021Z,83.42
2022-10-07T16:21:08.299Z,83.58
2022-10-07T16:23:35.558Z,83.78
2022-10-07T16:26:10.728Z,84.23
2022-10-07T16:29:00.599Z,84.79
2022-10-07T16:31:28.745Z,84.68
2022-10-07T16:33:55.702Z,84.84
2022-10-07T16:36:23.965Z,84.80
2022-10-07T16:38:51.986Z,84.89
2022-10-07T16:41:21.376Z,85.62
2022-10-07T16:43:47.753Z,85.23
2022-10-07T16:46:18.409Z,85.37
2022-10-07T16:48:46.732Z,85.33
2022-10-07T16:51:17.347Z,85.70
2022-10-07T16:53:46.099Z,85.80
2022-10-07T16:56:17.920Z,85.97
2022-10-07T16:58:45.010Z,85.96
2022-10-07T17:01:14.087Z,86.22
2022-10-07T17:03:42.675Z,86.19
2022-10-07T17:06:13.407Z,86.34
2022-10-07T17:08:42.880Z,86.37
2022-10-07T17:11:31.125Z,86.54
2022-10-07T17:14:00.696Z,86.76
2022-10-07T17:16:29.587Z,86.92
2022-10-07T17:18:56.293Z,87.14
2022-10-07T17:21:23.189Z,87.76
2022-10-07T17:23:50.041Z,87.63
2022-10-07T17:26:17.573Z,87.71
2022-10-07T17:28:44.096Z,88.02
2022-10-07T17:31:13.438Z,87.93
2022-10-07T17:33:42.348Z,88.29
2022-10-07T17:36:10.454Z,88.63
2022-10-07T17:38:38.782Z,88.64
2022-10-07T17:41:11.259Z,89.05
2022-10-07T17:43:37.745Z,89.01
2022-10-07T17:46:06.934Z,89.08
2022-10-07T17:48:37.269Z,89.19
2022-10-07T17:51:04.849Z,89.53
2022-10-07T17:53:32.843Z,89.72
2022-10-07T17:55:59.845Z,89.35
2022-10-07T17:58:26.670Z,89.50
2022-10-07T18:00:53.160Z,90.01
2022-10-07T18:03:19.564Z,90.12
2022-10-07T18:05:53.016Z,89.63
2022-10-07T18:08:20.196Z,89.81
2022-10-07T18:10:50.715Z,89.66
2022-10-07T18:13:35.660Z,89.97
2022-10-07T18:16:04.314Z,89.92
2022-10-07T18:18:31.484Z,90.14
2022-10-07T18:21:05.109Z,90.33
2022-10-07T18:23:32.014Z,90.46
2022-10-07T18:26:02.766Z,90.23
2022-10-07T18:28:32.707Z,90.44
2022-10-07T18:30:59.097Z,90.58
2022-10-07T18:33:25.513Z,90.86
2022-10-07T18:36:09.993Z,91.41
2022-10-07T18:38:39.544Z,91.40
2022-10-07T18:41:08.855Z,91.48
2022-10-07T18:43:35.524Z,91.60
2022-10-07T18:46:05.485Z,91.28
2022-10-07T18:48:33.494Z,91.30
2022-10-07T18:51:00.644Z,91.38
2022-10-07T18:53:31.595Z,91.26
2022-10-07T18:56:09.085Z,91.07
2022-10-07T18:58:37.466Z,91.06
2022-10-07T19:01:15.189Z,90.89
2022-10-07T19:03:42.485Z,90.81
2022-10-07T19:06:11.945Z,90.42
2022-10-07T19:08:38.794Z,90.61
2022-10-07T19:11:16.464Z,90.24
2022-10-07T19:13:47.752Z,90.62
2022-10-07T19:16:18.678Z,90.02
2022-10-07T19:18:46.494Z,90.34
2022-10-07T19:21:13.990Z,90.13
2022-10-07T19:23:41.016Z,90.06
2022-10-07T19:26:08.344Z,90.31
2022-10-07T19:28:36.702Z,89.69
2022-10-07T19:31:24.735Z,89.26
2022-10-07T19:33:55.269Z,89.62
2022-10-07T19:36:23.164Z,89.35
2022-10-07T19:38:53.421Z,89.67
2022-10-07T19:41:23.455Z,89.22
2022-10-07T19:43:50.465Z,88.99
2022-10-07T19:46:19.081Z,89.13
2022-10-07T19:48:45.860Z,89.07
2022-10-07T19:51:17.991Z,89.63
2022-10-07T19:53:47.256Z,89.41
2022-10-07T19:56:28.065Z,90.01
2022-10-07T19:59:03.700Z,89.66
2022-10-07T20:01:32.426Z,90.25
2022-10-07T20:04:01.353Z,90.22
2022-10-07T20:06:28.181Z,90.03
2022-10-07T20:08:55.753Z,90.09
2022-10-07T20:11:23.037Z,90.07
2022-10-07T20:13:49.709Z,89.98
2022-10-07T20:16:19.100Z,90.08
2022-10-07T20:18:48.558Z,90.33
2022-10-07T20:21:17.576Z,89.93
2022-10-07T20:23:46.720Z,90.40
2022-10-07T20:26:18.621Z,90.40
2022-10-07T20:28:51.200Z,90.19
2022-10-07T20:31:21.188Z,90.39
2022-10-07T20:33:49.961Z,90.70
2022-10-07T20:36:21.385Z,90.84
2022-10-07T20:39:11.852Z,90.32
2022-10-07T20:42:06.138Z,91.14
2022-10-07T20:44:32.749Z,90.63
2022-10-07T20:46:59.112Z,90.87
2022-10-07T20:49:28.451Z,90.70
2022-10-07T20:51:57.314Z,91.03
2022-10-07T20:54:25.213Z,90.94
2022-10-07T20:56:52.269Z,91.03
2022-10-07T20:59:19.400Z,91.18
2022-10-07T21:01:46.288Z,91.53
2022-10-07T21:04:15.131Z,91.52
2022-10-07T21:06:42.806Z,91.35
2022-10-07T21:09:10.712Z,90.60
2022-10-07T21:11:37.657Z,90.93
2022-10-07T21:14:04.445Z,90.11
2022-10-07T21:16:32.403Z,89.78
2022-10-07T21:18:58.876Z,89.73
2022-10-07T21:21:25.444Z,90.13
2022-10-07T21:23:52.751Z,90.59
2022-10-07T21:26:20.152Z,90.58
2022-10-07T21:28:48.230Z,90.88
2022-10-07T21:31:17.737Z,91.31
2022-10-07T21:33:49.748Z,90.94
2022-10-07T21:36:18.838Z,90.86
2022-10-07T21:38:47.414Z,91.17
2022-10-07T21:41:17.584Z,91.26
2022-10-07T21:43:49.037Z,91.36
2022-10-07T21:46:16.430Z,91.25
2022-10-07T21:48:43.433Z,91.24
2022-10-07T21:51:10.205Z,91.16
2022-10-07T21:53:36.942Z,91.05
2022-10-07T21:56:05.367Z,91.58
2022-10-07T21:58:33.231Z,91.75
2022-10-07T22:01:07.645Z,91.56
2022-10-07T22:03:34.617Z,91.38
2022-10-07T22:06:02.768Z,91.13
2022-10-07T22:08:35.105Z,91.36
2022-10-07T22:11:19.104Z,91.17
2022-10-07T22:13:55.086Z,90.63
2022-10-07T22:16:22.886Z,90.84
2022-10-07T22:18:51.398Z,90.55
2022-10-07T22:21:28.317Z,90.78
2022-10-07T22:24:02.650Z,90.85
2022-10-07T22:26:32.626Z,90.84
2022-10-07T22:28:59.385Z,90.72
2022-10-07T22:31:26.531Z,90.57
2022-10-07T22:34:00.681Z,90.78
2022-10-07T22:36:28.202Z,90.88
2022-10-07T22:38:56.420Z,91.04
2022-10-07T22:41:24.525Z,91.11
2022-10-07T22:43:52.763Z,90.59
2022-10-07T22:46:28.116Z,90.90
2022-10-07T22:48:58.277Z,90.80
2022-10-07T22:51:28.381Z,90.21
2022-10-07T22:53:56.583Z,90.41
2022-10-07T22:56:25.962Z,90.30
2022-10-07T22:58:58.693Z,90.23
2022-10-07T23:01:29.274Z,90.26
2022-10-07T23:03:56.859Z,90.04
2022-10-07T23:06:23.292Z,90.35
2022-10-07T23:08:49.735Z,90.22
2022-10-07T23:11:19.434Z,90.22
2022-10-07T23:13:46.405Z,89.96
2022-10-07T23:16:16.295Z,90.46
2022-10-07T23:18:44.752Z,90.42
2022-10-07T23:21:16.871Z,90.41
2022-10-07T23:23:46.573Z,90.65
2022-10-07T23:26:21.394Z,91.49
2022-10-07T23:28:49.282Z,91.13
2022-10-07T23:31:18.372Z,91.17
2022-10-07T23:33:47.297Z,91.56
2022-10-07T23:36:15.142Z,91.06
2022-10-07T23:38:44.841Z,91.26
2022-10-07T23:41:13.003Z,91.40
2022-10-07T23:43:39.493Z,91.82
2022-10-07T23:46:08.105Z,91.90
2022-10-07T23:48:35.191Z,92.10
2022-10-07T23:51:05.876Z,92.31
2022-10-07T23:53:33.657Z,91.91
2022-10-07T23:56:00.952Z,92.19
2022-10-07T23:58:29.674Z,92.41
